This is the latest recevied weather packets stored in our database for station/object KI7YRV. If no packets are shown the sender has not sent any weather packets the latest 10 day(s).
| Time | Temp. | Humidity | Pressure | Rain* | Wind** | Luminosity | Snow |
|---|---|---|---|---|---|---|---|
| 1777707026 | 5.56° C | 51% | 1023.6 hPa | 0 mm | - | - | - |
| 1777701629 | 6.67° C | 44% | 1023.6 hPa | 0 mm | - | - | - |
| 1777698615 | 8.33° C | 38% | 1023.5 hPa | 0 mm | - | - | - |
| 1777693832 | 10° C | 33% | 1023.1 hPa | 0 mm | - | - | - |
| 1777690818 | 11.67° C | 31% | 1022.6 hPa | 0 mm | - | - | - |
| 1777689621 | 11.67° C | 31% | 1022.3 hPa | 0 mm | - | - | - |
| 1777684826 | 17.22° C | 24% | 1021.8 hPa | 0 mm | - | - | - |
| 1777683617 | 18.33° C | 23% | 1022 hPa | 0 mm | - | - | - |
| 1777681830 | 18.89° C | 23% | 1022 hPa | 0 mm | - | - | - |
| 1777679449 | 18.89° C | 24% | 1022 hPa | 0 mm | - | - | - |
| 1777676415 | 18.33° C | 24% | 1022 hPa | 0 mm | - | - | - |
| 1777674034 | 18.89° C | 24% | 1022.2 hPa | 0 mm | - | - | - |
| 1777669827 | 18.33° C | 25% | 1023 hPa | 0 mm | - | - | - |
| 1777669225 | 18.33° C | 26% | 1023.1 hPa | 0 mm | - | - | - |
| 1777662029 | 16.67° C | 27% | 1023.5 hPa | 0 mm | - | - | - |
| 1777660223 | 15° C | 29% | 1023.7 hPa | 0 mm | - | - | - |
| 1777655422 | 14.44° C | 32% | 1024.2 hPa | 0 mm | - | - | - |
| 1777654231 | 13.33° C | 34% | 1024.1 hPa | 0 mm | - | - | - |
| 1777651830 | 12.22° C | 38% | 1024.2 hPa | 0 mm | - | - | - |
| 1777650046 | 10.56° C | 39% | 1024.3 hPa | 0 mm | - | - | - |
| 1777648817 | 9.44° C | 45% | 1024.3 hPa | 0 mm | - | - | - |
| 1777647024 | 7.22° C | 53% | 1024.4 hPa | 0 mm | - | - | - |
| 1777643420 | 3.33° C | 64% | 1024.3 hPa | 0 mm | - | - | - |
| 1777642229 | 2.22° C | 68% | 1024.2 hPa | 0 mm | - | - | - |
| 1777641615 | 1.67° C | 70% | 1024.2 hPa | 0 mm | - | - | - |
* Rain latest hour (hover to see other rain measurements)
** Current wind speed in m/s (hover to see current wind gust speed)